Time;durP1;ratioP1;P1;durP2;ratioP2;P2;SDS_P1;SDS_P2;PMS_P1;PMS_P2;Temp;Humidity;BMP_temperature;BMP_pressure;BME280_temperature;BME280_humidity;BME280_pressure;Samples;Min_cycle;Max_cycle;Signal;HPM_P1;HPM_P2
2021/05/18 00:00:10;;;;;;;24.35;12.63;;;;;;;;;;1478091;40;20459;-86
2021/05/18 00:01:14;;;;;;;29.17;12.68;;;;;;;;;;1470721;40;20531;-85
2021/05/18 00:02:18;;;;;;;22.38;12.02;;;;;;;;;;1469665;40;20414;-85
2021/05/18 00:03:23;;;;;;;21.38;12.38;;;;;;;;;;1473775;40;20392;-86
2021/05/18 00:04:25;;;;;;;29.42;14.13;;;;;;;;;;1465821;40;20427;-86
2021/05/18 00:05:28;;;;;;;25.13;12.05;;;;;;;;;;1471072;40;20410;-86
2021/05/18 00:06:31;;;;;;;29.63;13.33;;;;;;;;;;1478177;40;20646;-86
2021/05/18 00:07:34;;;;;;;21.23;12.43;;;;;;;;;;1470114;40;20743;-86
2021/05/18 00:12:41;;;;;;;24.87;13.67;;;;;;;;;;1473779;40;20602;-87
2021/05/18 00:13:46;;;;;;;30.52;14.20;;;;;;;;;;1471307;40;20535;-86
2021/05/18 00:14:49;;;;;;;28.13;14.85;;;;;;;;;;1473933;40;20770;-86
2021/05/18 00:15:55;;;;;;;27.80;13.07;;;;;;;;;;1478104;40;20398;-86
2021/05/18 00:16:57;;;;;;;27.88;13.93;;;;;;;;;;1478017;40;20386;-83
2021/05/18 00:18:02;;;;;;;31.20;15.07;;;;;;;;;;1477633;40;20401;-85
2021/05/18 00:19:05;;;;;;;32.92;15.85;;;;;;;;;;1470306;40;20392;-85
2021/05/18 00:20:11;;;;;;;27.15;13.90;;;;;;;;;;1473503;40;20794;-85
2021/05/18 00:21:13;;;;;;;25.35;14.60;;;;;;;;;;1476852;40;20395;-85
2021/05/18 00:22:18;;;;;;;25.38;14.60;;;;;;;;;;1473928;40;20384;-84
2021/05/18 00:23:23;;;;;;;27.17;15.05;;;;;;;;;;1474647;40;20407;-86
2021/05/18 00:24:25;;;;;;;26.08;14.45;;;;;;;;;;1468780;40;21022;-85
2021/05/18 00:25:28;;;;;;;21.98;14.00;;;;;;;;;;1472476;40;20442;-86
2021/05/18 00:26:33;;;;;;;27.75;14.32;;;;;;;;;;1473632;40;20409;-85
2021/05/18 00:27:38;;;;;;;27.23;15.05;;;;;;;;;;1470317;40;20394;-85
2021/05/18 00:28:40;;;;;;;23.23;14.45;;;;;;;;;;1468575;40;20482;-86
2021/05/18 00:29:45;;;;;;;24.83;14.13;;;;;;;;;;1465568;40;20383;-85
2021/05/18 00:30:50;;;;;;;28.42;16.13;;;;;;;;;;1466331;40;20410;-87
2021/05/18 00:31:52;;;;;;;29.05;15.45;;;;;;;;;;1471205;40;20402;-86
2021/05/18 00:32:53;;;;;;;25.75;14.88;;;;;;;;;;1474884;40;20856;-86
2021/05/18 00:33:55;;;;;;;24.20;14.95;;;;;;;;;;1475142;40;20411;-86
2021/05/18 00:34:58;;;;;;;23.92;14.40;;;;;;;;;;1470844;40;20479;-85
2021/05/18 00:36:01;;;;;;;25.13;15.10;;;;;;;;;;1471728;40;20409;-86
2021/05/18 00:37:03;;;;;;;27.35;15.18;;;;;;;;;;1468870;40;20703;-85
2021/05/18 00:38:09;;;;;;;28.52;15.98;;;;;;;;;;1474383;40;20828;-86
2021/05/18 00:39:12;;;;;;;27.85;16.48;;;;;;;;;;1474720;40;20463;-86
2021/05/18 00:40:18;;;;;;;27.83;15.70;;;;;;;;;;1473954;40;20850;-86
2021/05/18 00:41:24;;;;;;;25.33;15.27;;;;;;;;;;1470292;40;20398;-87
2021/05/18 00:42:29;;;;;;;27.02;14.93;;;;;;;;;;1463118;40;20401;-86
2021/05/18 00:43:35;;;;;;;30.38;16.60;;;;;;;;;;1467070;40;20444;-86
2021/05/18 00:44:37;;;;;;;25.38;16.83;;;;;;;;;;1467548;40;21122;-87
2021/05/18 00:45:46;;;;;;;26.35;16.23;;;;;;;;;;1466711;40;20391;-87
2021/05/18 00:46:51;;;;;;;29.17;16.63;;;;;;;;;;1468355;40;20403;-87
2021/05/18 00:47:56;;;;;;;23.50;16.42;;;;;;;;;;1474132;40;20399;-87
2021/05/18 00:49:03;;;;;;;27.40;17.08;;;;;;;;;;1478814;40;20383;-88
2021/05/18 00:50:07;;;;;;;28.63;17.27;;;;;;;;;;1473052;40;20407;-86
2021/05/18 00:51:12;;;;;;;31.10;16.98;;;;;;;;;;1470631;40;20436;-88
2021/05/18 00:52:15;;;;;;;28.50;17.67;;;;;;;;;;1464578;40;20405;-87
2021/05/18 00:53:21;;;;;;;30.08;17.60;;;;;;;;;;1458487;40;20699;-87
2021/05/18 00:54:35;;;;;;;28.65;17.00;;;;;;;;;;1460473;40;20399;-87
2021/05/18 00:59:08;;;;;;;24.63;18.00;;;;;;;;;;1479261;40;20401;-87
2021/05/18 01:00:12;;;;;;;28.75;17.65;;;;;;;;;;1475669;40;20412;-84
2021/05/18 01:01:20;;;;;;;25.70;17.73;;;;;;;;;;1471576;40;20419;-87
2021/05/18 01:02:25;;;;;;;28.98;18.45;;;;;;;;;;1475862;40;20443;-85
2021/05/18 01:03:29;;;;;;;25.98;17.85;;;;;;;;;;1472067;40;20433;-85
2021/05/18 01:04:39;;;;;;;30.90;18.52;;;;;;;;;;1472634;40;20392;-82
2021/05/18 01:07:02;;;;;;;28.10;19.17;;;;;;;;;;1477883;40;20400;-82
2021/05/18 01:08:08;;;;;;;28.63;19.48;;;;;;;;;;1472713;40;20406;-83
2021/05/18 01:09:13;;;;;;;27.00;20.10;;;;;;;;;;1469444;40;20446;-82
2021/05/18 01:10:17;;;;;;;32.30;19.75;;;;;;;;;;1479116;40;20406;-82
2021/05/18 01:11:22;;;;;;;31.27;20.10;;;;;;;;;;1476402;40;20672;-81
2021/05/18 01:12:24;;;;;;;30.92;19.15;;;;;;;;;;1470741;40;20414;-82
2021/05/18 01:13:28;;;;;;;31.63;19.70;;;;;;;;;;1471019;40;20680;-82
2021/05/18 01:14:29;;;;;;;31.58;21.23;;;;;;;;;;1469557;40;20718;-82
2021/05/18 01:15:31;;;;;;;30.92;19.23;;;;;;;;;;1474979;40;20426;-82
2021/05/18 01:16:37;;;;;;;28.47;20.20;;;;;;;;;;1479936;40;20457;-82
2021/05/18 01:17:38;;;;;;;33.15;20.13;;;;;;;;;;1481932;40;20390;-82
2021/05/18 01:18:45;;;;;;;33.50;20.42;;;;;;;;;;1477312;40;20416;-83
2021/05/18 01:19:46;;;;;;;32.58;20.58;;;;;;;;;;1477699;40;20526;-82
2021/05/18 01:20:56;;;;;;;33.17;19.85;;;;;;;;;;1478819;40;20462;-82
2021/05/18 01:22:00;;;;;;;27.80;19.45;;;;;;;;;;1479487;40;20409;-82
2021/05/18 01:23:03;;;;;;;31.83;20.50;;;;;;;;;;1474673;40;20469;-82
2021/05/18 01:24:06;;;;;;;30.83;19.77;;;;;;;;;;1474855;40;20725;-81
2021/05/18 01:25:08;;;;;;;34.67;21.73;;;;;;;;;;1478625;40;20807;-83
2021/05/18 01:26:11;;;;;;;33.10;20.85;;;;;;;;;;1478415;40;20406;-83
2021/05/18 01:27:13;;;;;;;30.55;19.88;;;;;;;;;;1474459;40;20538;-81
2021/05/18 01:28:15;;;;;;;33.28;20.48;;;;;;;;;;1474373;40;20470;-82
2021/05/18 01:29:21;;;;;;;28.60;19.58;;;;;;;;;;1474661;40;20414;-82
2021/05/18 01:30:23;;;;;;;31.52;20.30;;;;;;;;;;1474850;40;20404;-83
2021/05/18 01:31:26;;;;;;;30.58;20.65;;;;;;;;;;1473651;40;20848;-82
2021/05/18 01:32:27;;;;;;;32.00;20.42;;;;;;;;;;1474237;40;20482;-81
2021/05/18 01:33:30;;;;;;;33.92;20.20;;;;;;;;;;1474395;40;20416;-81
2021/05/18 01:34:31;;;;;;;32.65;20.42;;;;;;;;;;1474804;40;21027;-82
2021/05/18 01:35:33;;;;;;;33.47;20.80;;;;;;;;;;1473808;40;20412;-82
2021/05/18 01:36:36;;;;;;;30.58;20.67;;;;;;;;;;1474204;40;20438;-81
2021/05/18 01:37:40;;;;;;;29.63;20.40;;;;;;;;;;1477918;40;20463;-82
2021/05/18 01:38:54;;;;;;;31.13;21.00;;;;;;;;;;1477303;40;20414;-82
2021/05/18 01:43:38;;;;;;;32.88;20.88;;;;;;;;;;1479575;40;20496;-82
2021/05/18 01:44:39;;;;;;;35.80;22.88;;;;;;;;;;1481041;40;20430;-81
2021/05/18 01:45:43;;;;;;;31.10;21.25;;;;;;;;;;1477172;40;20427;-82
2021/05/18 01:46:46;;;;;;;29.98;20.52;;;;;;;;;;1481324;40;20449;-82
2021/05/18 01:47:52;;;;;;;33.30;19.50;;;;;;;;;;1479567;40;20873;-82
2021/05/18 01:48:59;;;;;;;24.33;17.65;;;;;;;;;;1478202;40;20415;-81
2021/05/18 01:50:01;;;;;;;25.63;18.17;;;;;;;;;;1477141;40;20423;-81
2021/05/18 01:51:03;;;;;;;27.10;18.33;;;;;;;;;;1472844;40;20400;-82
2021/05/18 01:52:07;;;;;;;29.17;18.17;;;;;;;;;;1477580;40;20443;-82
2021/05/18 01:53:10;;;;;;;20.95;14.50;;;;;;;;;;1478601;40;20402;-83
2021/05/18 01:54:15;;;;;;;20.93;15.50;;;;;;;;;;1478811;40;20609;-82
2021/05/18 01:55:27;;;;;;;23.33;14.13;;;;;;;;;;1478937;40;20397;-82
2021/05/18 01:57:40;;;;;;;20.65;13.80;;;;;;;;;;1478232;40;20402;-81
2021/05/18 01:58:42;;;;;;;22.70;14.73;;;;;;;;;;1478069;40;20429;-82
2021/05/18 01:59:45;;;;;;;20.27;14.00;;;;;;;;;;1478626;40;20406;-82
2021/05/18 02:00:48;;;;;;;21.60;13.35;;;;;;;;;;1478768;40;20507;-82
2021/05/18 02:01:53;;;;;;;17.73;10.70;;;;;;;;;;1473969;40;20404;-82
2021/05/18 02:02:56;;;;;;;9.00;6.60;;;;;;;;;;1473916;40;20424;-81
2021/05/18 02:03:58;;;;;;;9.98;6.97;;;;;;;;;;1474238;40;20427;-82
2021/05/18 02:05:05;;;;;;;10.38;7.95;;;;;;;;;;1473070;40;20412;-82
2021/05/18 02:06:07;;;;;;;8.80;5.40;;;;;;;;;;1473356;40;20518;-83
2021/05/18 02:07:16;;;;;;;6.80;4.68;;;;;;;;;;1472359;40;20410;-83
2021/05/18 02:08:18;;;;;;;6.85;4.50;;;;;;;;;;1473989;40;20404;-82
2021/05/18 02:09:21;;;;;;;4.10;3.70;;;;;;;;;;1465888;40;20403;-81
2021/05/18 02:10:23;;;;;;;5.45;3.30;;;;;;;;;;1466102;40;20412;-81
2021/05/18 02:11:25;;;;;;;5.38;3.25;;;;;;;;;;1476464;40;20434;-81
2021/05/18 02:12:27;;;;;;;4.45;3.30;;;;;;;;;;1477614;40;20414;-82
2021/05/18 02:13:29;;;;;;;4.00;3.28;;;;;;;;;;1477965;40;20448;-82
2021/05/18 02:14:33;;;;;;;5.75;3.92;;;;;;;;;;1478511;40;20472;-81
2021/05/18 02:15:47;;;;;;;4.22;3.40;;;;;;;;;;1473643;40;20484;-81
2021/05/18 02:16:49;;;;;;;4.47;3.28;;;;;;;;;;1466155;40;20423;-81
2021/05/18 02:20:39;;;;;;;5.10;4.00;;;;;;;;;;1475952;40;20739;-82
2021/05/18 02:24:38;;;;;;;7.93;4.57;;;;;;;;;;1473232;40;20555;-81
2021/05/18 02:25:39;;;;;;;5.43;4.82;;;;;;;;;;1473992;40;20407;-82
2021/05/18 02:26:41;;;;;;;5.38;4.80;;;;;;;;;;1478158;40;21098;-82
2021/05/18 02:27:43;;;;;;;6.45;4.68;;;;;;;;;;1478990;40;20799;-82
2021/05/18 02:28:45;;;;;;;6.57;5.57;;;;;;;;;;1477678;40;20425;-81
2021/05/18 02:29:47;;;;;;;7.20;5.30;;;;;;;;;;1479736;40;20449;-81
2021/05/18 02:30:50;;;;;;;8.43;5.68;;;;;;;;;;1479407;40;20441;-82
2021/05/18 02:31:54;;;;;;;10.32;5.53;;;;;;;;;;1479245;40;20422;-81
2021/05/18 02:32:56;;;;;;;7.50;5.72;;;;;;;;;;1479973;40;20862;-82
2021/05/18 02:33:58;;;;;;;7.30;5.70;;;;;;;;;;1475416;40;20478;-82
2021/05/18 02:35:01;;;;;;;9.75;6.28;;;;;;;;;;1479272;40;20402;-81
2021/05/18 02:36:04;;;;;;;7.18;5.90;;;;;;;;;;1476499;40;20405;-83
2021/05/18 02:37:06;;;;;;;7.00;5.88;;;;;;;;;;1475776;40;20434;-82
2021/05/18 02:38:08;;;;;;;7.68;5.90;;;;;;;;;;1474631;40;20408;-84
2021/05/18 02:39:09;;;;;;;7.32;6.38;;;;;;;;;;1470417;40;20467;-83
2021/05/18 02:40:17;;;;;;;7.60;6.03;;;;;;;;;;1470325;40;20445;-84
2021/05/18 02:41:23;;;;;;;10.38;5.82;;;;;;;;;;1478087;40;20613;-82
2021/05/18 02:42:25;;;;;;;7.65;6.03;;;;;;;;;;1479216;40;20668;-81
2021/05/18 02:43:32;;;;;;;9.70;6.35;;;;;;;;;;1480836;40;20434;-81
2021/05/18 02:45:04;;;;;;;7.35;6.10;;;;;;;;;;1480605;40;20402;-82
2021/05/18 02:46:18;;;;;;;7.95;5.75;;;;;;;;;;1480566;40;20429;-81
2021/05/18 02:50:00;;;;;;;9.40;7.30;;;;;;;;;;1475525;40;20403;-82
2021/05/18 02:51:03;;;;;;;11.23;7.28;;;;;;;;;;1470095;40;20429;-83
2021/05/18 02:52:04;;;;;;;11.20;7.43;;;;;;;;;;1474059;40;20416;-83
2021/05/18 02:53:06;;;;;;;10.38;7.88;;;;;;;;;;1474049;40;20407;-82
2021/05/18 02:54:10;;;;;;;12.40;8.25;;;;;;;;;;1475417;40;20406;-83
2021/05/18 02:55:20;;;;;;;9.52;7.00;;;;;;;;;;1478972;40;20421;-83
2021/05/18 02:56:30;;;;;;;11.03;8.03;;;;;;;;;;1478817;40;20524;-82
2021/05/18 02:57:33;;;;;;;9.98;8.07;;;;;;;;;;1479027;40;21268;-82
2021/05/18 02:58:37;;;;;;;8.73;7.82;;;;;;;;;;1474131;40;20410;-82
2021/05/18 02:59:39;;;;;;;10.55;7.88;;;;;;;;;;1470841;40;20410;-81
2021/05/18 03:00:41;;;;;;;13.15;7.50;;;;;;;;;;1477749;40;20489;-82
2021/05/18 03:01:48;;;;;;;10.70;7.93;;;;;;;;;;1477725;40;20720;-82
2021/05/18 03:02:51;;;;;;;12.25;8.85;;;;;;;;;;1473325;40;20514;-82
2021/05/18 03:03:53;;;;;;;11.73;8.52;;;;;;;;;;1478287;40;20363;-83
2021/05/18 03:04:55;;;;;;;14.75;7.85;;;;;;;;;;1477295;40;20430;-82
2021/05/18 03:05:56;;;;;;;13.05;8.77;;;;;;;;;;1472147;40;20496;-83
2021/05/18 03:06:58;;;;;;;10.35;8.05;;;;;;;;;;1468755;40;20408;-82
2021/05/18 03:08:00;;;;;;;12.45;7.43;;;;;;;;;;1469914;40;20707;-81
2021/05/18 03:09:08;;;;;;;10.13;7.55;;;;;;;;;;1469783;40;20863;-81
2021/05/18 03:10:11;;;;;;;14.02;7.70;;;;;;;;;;1470578;40;20397;-84
2021/05/18 03:11:13;;;;;;;10.48;7.00;;;;;;;;;;1477700;40;20423;-82
2021/05/18 03:12:14;;;;;;;11.82;7.15;;;;;;;;;;1478120;40;20460;-82
2021/05/18 03:13:16;;;;;;;9.95;7.20;;;;;;;;;;1478696;40;20420;-82
2021/05/18 03:14:19;;;;;;;13.15;6.65;;;;;;;;;;1478079;40;20428;-81
2021/05/18 03:15:21;;;;;;;10.27;6.68;;;;;;;;;;1472812;40;20826;-82
2021/05/18 03:16:22;;;;;;;10.98;6.60;;;;;;;;;;1477327;40;20426;-82
2021/05/18 03:17:24;;;;;;;11.05;6.30;;;;;;;;;;1469460;40;20446;-82
2021/05/18 03:18:26;;;;;;;13.38;6.28;;;;;;;;;;1468889;40;20402;-82
2021/05/18 03:19:28;;;;;;;6.47;5.10;;;;;;;;;;1472927;40;20415;-81
2021/05/18 03:20:29;;;;;;;6.93;5.35;;;;;;;;;;1472174;40;20442;-81
2021/05/18 03:21:31;;;;;;;11.05;6.45;;;;;;;;;;1478193;40;20453;-82
2021/05/18 03:22:33;;;;;;;10.02;6.03;;;;;;;;;;1478245;40;21110;-82
2021/05/18 03:23:35;;;;;;;9.00;5.82;;;;;;;;;;1478917;40;20421;-82
2021/05/18 03:24:41;;;;;;;12.07;5.97;;;;;;;;;;1474366;40;20419;-81
2021/05/18 03:25:43;;;;;;;11.05;6.50;;;;;;;;;;1474414;40;20391;-82
2021/05/18 03:26:47;;;;;;;9.27;6.40;;;;;;;;;;1474696;40;20419;-82
2021/05/18 03:27:49;;;;;;;9.98;5.97;;;;;;;;;;1476209;40;20403;-82
2021/05/18 03:28:57;;;;;;;8.23;5.28;;;;;;;;;;1478652;40;20394;-81
2021/05/18 03:30:11;;;;;;;9.93;6.22;;;;;;;;;;1480838;40;20406;-83
2021/05/18 03:34:27;;;;;;;10.60;6.17;;;;;;;;;;1475245;40;20479;-85
2021/05/18 03:35:17;;;;;;;11.88;6.72;;;;;;;;;;1479575;40;20397;-82
2021/05/18 03:36:19;;;;;;;12.60;6.70;;;;;;;;;;1475712;40;20423;-81
2021/05/18 03:38:38;;;;;;;10.02;5.97;;;;;;;;;;1476646;40;20395;-82
2021/05/18 03:39:42;;;;;;;13.93;7.72;;;;;;;;;;1476753;40;20377;-81
2021/05/18 03:40:50;;;;;;;10.10;6.82;;;;;;;;;;1475616;40;20416;-81
2021/05/18 03:42:00;;;;;;;14.25;7.25;;;;;;;;;;1478792;40;20407;-82
2021/05/18 03:43:24;;;;;;;12.93;7.93;;;;;;;;;;1478892;40;20444;-82
2021/05/18 03:48:39;;;;;;;11.10;8.07;;;;;;;;;;1459946;40;20419;-82
2021/05/18 03:52:38;;;;;;;14.27;8.93;;;;;;;;;;1473183;40;20813;-82
2021/05/18 03:55:01;;;;;;;12.60;7.97;;;;;;;;;;1472462;40;20400;-82
2021/05/18 04:04:57;;;;;;;13.43;8.00;;;;;;;;;;1477435;40;20477;-82
2021/05/18 04:12:43;;;;;;;11.90;8.27;;;;;;;;;;1478606;40;20402;-82
2021/05/18 04:17:29;;;;;;;13.20;7.85;;;;;;;;;;1480815;40;20389;-82
2021/05/18 04:18:50;;;;;;;15.32;8.50;;;;;;;;;;1480001;40;20418;-83
2021/05/18 04:21:26;;;;;;;13.38;8.45;;;;;;;;;;1475395;40;20414;-83
2021/05/18 04:39:24;;;;;;;21.38;13.30;;;;;;;;;;1474141;40;20408;-83
2021/05/18 04:51:35;;;;;;;20.23;14.88;;;;;;;;;;1473998;40;20419;-81
2021/05/18 04:53:25;;;;;;;21.43;14.20;;;;;;;;;;1472724;40;20509;-81
2021/05/18 04:59:09;;;;;;;16.15;13.90;;;;;;;;;;1477551;40;20949;-81
2021/05/18 05:00:16;;;;;;;20.08;14.20;;;;;;;;;;1475087;40;20399;-82
2021/05/18 05:01:30;;;;;;;20.70;15.13;;;;;;;;;;1476377;40;20406;-81
2021/05/18 05:02:50;;;;;;;19.75;14.32;;;;;;;;;;1478784;40;20429;-81
2021/05/18 05:06:32;;;;;;;17.95;14.55;;;;;;;;;;1477984;40;20414;-81
2021/05/18 05:07:45;;;;;;;23.80;15.80;;;;;;;;;;1474274;40;20920;-81
2021/05/18 05:09:48;;;;;;;21.15;16.27;;;;;;;;;;1470509;40;20406;-81
2021/05/18 05:14:34;;;;;;;23.08;15.20;;;;;;;;;;1475223;40;20399;-81
2021/05/18 05:15:44;;;;;;;19.15;14.77;;;;;;;;;;1477794;40;20409;-81
2021/05/18 05:16:45;;;;;;;24.60;16.15;;;;;;;;;;1473421;40;20508;-82
2021/05/18 05:17:47;;;;;;;22.75;15.40;;;;;;;;;;1473784;40;20654;-81
2021/05/18 05:18:48;;;;;;;21.42;14.30;;;;;;;;;;1472929;40;20795;-82
2021/05/18 05:19:50;;;;;;;22.10;15.02;;;;;;;;;;1469155;40;20483;-82
2021/05/18 05:20:52;;;;;;;21.75;15.15;;;;;;;;;;1466592;40;21140;-82
2021/05/18 05:21:57;;;;;;;20.10;14.70;;;;;;;;;;1474031;40;20405;-82
2021/05/18 05:22:59;;;;;;;22.63;15.13;;;;;;;;;;1477403;40;20402;-82
2021/05/18 05:24:01;;;;;;;23.45;15.20;;;;;;;;;;1476997;40;20402;-82
2021/05/18 05:25:02;;;;;;;21.85;15.20;;;;;;;;;;1478268;40;20410;-82
2021/05/18 05:26:05;;;;;;;24.45;14.98;;;;;;;;;;1473964;40;20396;-82
2021/05/18 05:27:06;;;;;;;22.00;14.77;;;;;;;;;;1478175;40;20406;-81
2021/05/18 05:28:25;;;;;;;20.35;14.45;;;;;;;;;;1477707;40;20537;-82
2021/05/18 05:29:27;;;;;;;18.67;12.95;;;;;;;;;;1471491;40;20414;-81
2021/05/18 05:30:29;;;;;;;20.35;13.45;;;;;;;;;;1466106;40;20414;-82
2021/05/18 05:31:31;;;;;;;19.13;13.10;;;;;;;;;;1470132;40;20492;-81
2021/05/18 05:32:32;;;;;;;21.23;14.48;;;;;;;;;;1470202;40;20993;-81
2021/05/18 05:33:34;;;;;;;21.27;13.75;;;;;;;;;;1474165;40;20872;-82
2021/05/18 05:34:35;;;;;;;22.95;14.10;;;;;;;;;;1478297;40;20394;-82
2021/05/18 05:35:37;;;;;;;22.02;14.13;;;;;;;;;;1475749;40;20416;-82
2021/05/18 05:36:39;;;;;;;22.20;13.38;;;;;;;;;;1472759;40;20472;-81
2021/05/18 05:37:42;;;;;;;20.90;12.88;;;;;;;;;;1470558;40;20808;-81
2021/05/18 05:38:44;;;;;;;21.17;13.23;;;;;;;;;;1474048;40;20825;-82
2021/05/18 05:39:46;;;;;;;21.73;13.20;;;;;;;;;;1470337;40;20413;-81
2021/05/18 05:40:47;;;;;;;20.27;12.90;;;;;;;;;;1465451;40;20414;-82
2021/05/18 05:41:54;;;;;;;20.42;13.07;;;;;;;;;;1473141;40;20423;-82
2021/05/18 05:42:56;;;;;;;19.63;12.45;;;;;;;;;;1478163;40;20410;-82
2021/05/18 05:43:58;;;;;;;19.65;12.82;;;;;;;;;;1470084;40;20426;-81
2021/05/18 05:45:00;;;;;;;18.80;12.47;;;;;;;;;;1474372;40;20629;-81
2021/05/18 05:46:02;;;;;;;22.52;13.07;;;;;;;;;;1474391;40;20416;-82
2021/05/18 05:47:03;;;;;;;24.45;12.73;;;;;;;;;;1478055;40;20446;-82
2021/05/18 05:48:06;;;;;;;20.90;12.48;;;;;;;;;;1478133;40;20402;-82
2021/05/18 05:49:07;;;;;;;19.77;12.32;;;;;;;;;;1473107;40;20647;-82
2021/05/18 05:50:10;;;;;;;21.50;11.82;;;;;;;;;;1473320;40;20422;-82
2021/05/18 05:51:12;;;;;;;19.13;12.38;;;;;;;;;;1473040;40;20792;-83
2021/05/18 05:52:18;;;;;;;20.52;11.45;;;;;;;;;;1463672;40;20530;-82
2021/05/18 05:53:20;;;;;;;23.35;12.52;;;;;;;;;;1467196;40;20426;-82
2021/05/18 05:54:23;;;;;;;18.58;11.80;;;;;;;;;;1478415;40;20443;-82
2021/05/18 05:55:25;;;;;;;25.80;13.70;;;;;;;;;;1474692;40;20426;-81
2021/05/18 05:56:30;;;;;;;20.52;12.82;;;;;;;;;;1476598;40;20812;-83
2021/05/18 05:57:32;;;;;;;20.05;12.73;;;;;;;;;;1479528;40;20390;-83
2021/05/18 05:58:33;;;;;;;20.08;13.15;;;;;;;;;;1479028;40;20526;-83
2021/05/18 05:59:35;;;;;;;22.05;13.10;;;;;;;;;;1475721;40;20405;-83
2021/05/18 06:00:38;;;;;;;24.45;13.90;;;;;;;;;;1475701;40;20757;-83
2021/05/18 06:01:40;;;;;;;21.90;12.50;;;;;;;;;;1475567;40;20421;-83
2021/05/18 06:02:41;;;;;;;20.63;13.40;;;;;;;;;;1476239;40;20422;-83
2021/05/18 06:03:46;;;;;;;23.50;13.02;;;;;;;;;;1482281;40;20398;-82
2021/05/18 06:04:47;;;;;;;24.20;13.52;;;;;;;;;;1480513;40;20402;-81
2021/05/18 06:05:49;;;;;;;24.27;14.30;;;;;;;;;;1481218;40;20422;-82
2021/05/18 06:06:51;;;;;;;24.92;13.73;;;;;;;;;;1479876;40;20425;-82
2021/05/18 06:07:53;;;;;;;22.98;13.13;;;;;;;;;;1475087;40;20701;-82
2021/05/18 06:08:54;;;;;;;18.67;13.23;;;;;;;;;;1478873;40;20414;-82
2021/05/18 06:10:02;;;;;;;21.55;12.95;;;;;;;;;;1479419;40;20504;-82
2021/05/18 06:11:26;;;;;;;20.55;12.07;;;;;;;;;;1478038;40;20570;-82
2021/05/18 06:41:40;;;;;;;12.20;9.98;;;;;;;;;;1475258;40;20419;-83
2021/05/18 06:43:21;;;;;;;15.73;10.07;;;;;;;;;;1474479;40;20400;-85
2021/05/18 06:47:49;;;;;;;14.07;9.93;;;;;;;;;;1471050;40;20468;-82
2021/05/18 06:48:32;;;;;;;16.08;10.05;;;;;;;;;;1476733;40;20414;-80
2021/05/18 06:49:38;;;;;;;14.48;10.27;;;;;;;;;;1483052;40;20495;-82
2021/05/18 06:50:40;;;;;;;15.40;9.80;;;;;;;;;;1476045;40;20414;-84
2021/05/18 06:51:42;;;;;;;16.85;9.25;;;;;;;;;;1475468;40;20463;-82
2021/05/18 06:52:45;;;;;;;14.88;10.07;;;;;;;;;;1474568;40;20404;-85
2021/05/18 06:53:47;;;;;;;9.75;7.70;;;;;;;;;;1470599;40;20449;-82
2021/05/18 06:54:48;;;;;;;13.75;8.80;;;;;;;;;;1466158;40;20407;-81
2021/05/18 06:56:10;;;;;;;15.38;9.07;;;;;;;;;;1465845;40;20418;-82
2021/05/18 06:57:11;;;;;;;15.32;9.00;;;;;;;;;;1475872;40;20507;-85
2021/05/18 06:58:20;;;;;;;19.50;9.52;;;;;;;;;;1474277;40;20714;-85
2021/05/18 07:00:23;;;;;;;16.23;9.15;;;;;;;;;;1474278;40;20396;-82
2021/05/18 07:01:25;;;;;;;16.10;9.77;;;;;;;;;;1477839;40;20768;-83
2021/05/18 07:02:27;;;;;;;15.68;9.57;;;;;;;;;;1473318;40;20427;-81
2021/05/18 07:03:34;;;;;;;13.15;8.07;;;;;;;;;;1474604;40;20441;-82
2021/05/18 07:04:38;;;;;;;12.90;7.75;;;;;;;;;;1473431;40;20524;-82
2021/05/18 07:05:50;;;;;;;11.15;7.68;;;;;;;;;;1467876;40;20488;-82
2021/05/18 07:09:18;;;;;;;12.88;7.05;;;;;;;;;;1477520;40;20418;-83
2021/05/18 07:10:20;;;;;;;14.60;7.95;;;;;;;;;;1473790;40;20412;-83
2021/05/18 07:11:22;;;;;;;12.23;7.25;;;;;;;;;;1475617;40;20421;-84
2021/05/18 07:12:23;;;;;;;7.85;7.05;;;;;;;;;;1478262;40;20434;-83
2021/05/18 07:13:25;;;;;;;12.32;7.47;;;;;;;;;;1477120;40;20734;-83
2021/05/18 07:14:27;;;;;;;13.73;7.30;;;;;;;;;;1474107;40;20412;-84
2021/05/18 07:15:29;;;;;;;14.90;7.70;;;;;;;;;;1474143;40;20443;-82
2021/05/18 07:16:31;;;;;;;16.10;8.32;;;;;;;;;;1472325;40;21035;-82
2021/05/18 07:17:33;;;;;;;14.18;8.38;;;;;;;;;;1472238;40;20483;-83
2021/05/18 07:18:50;;;;;;;12.45;8.18;;;;;;;;;;1476527;40;20406;-82
2021/05/18 07:19:52;;;;;;;12.82;7.93;;;;;;;;;;1476678;40;20688;-84
2021/05/18 07:20:54;;;;;;;12.13;7.72;;;;;;;;;;1465488;40;20428;-84
2021/05/18 07:21:56;;;;;;;15.32;7.97;;;;;;;;;;1473089;40;20404;-83
2021/05/18 07:23:06;;;;;;;12.43;7.53;;;;;;;;;;1476915;40;20457;-83
2021/05/18 07:24:11;;;;;;;10.80;7.82;;;;;;;;;;1469200;40;21149;-83
2021/05/18 07:25:13;;;;;;;11.93;7.72;;;;;;;;;;1473756;40;20400;-84
2021/05/18 07:26:14;;;;;;;10.50;7.38;;;;;;;;;;1475980;40;20424;-85
2021/05/18 07:27:16;;;;;;;10.07;7.35;;;;;;;;;;1468749;40;20553;-86
2021/05/18 07:28:20;;;;;;;11.65;6.85;;;;;;;;;;1471244;40;20686;-83
2021/05/18 07:29:22;;;;;;;10.68;7.05;;;;;;;;;;1476999;40;20418;-84
2021/05/18 07:30:23;;;;;;;10.50;7.90;;;;;;;;;;1468830;40;20487;-85
2021/05/18 07:31:25;;;;;;;11.05;7.32;;;;;;;;;;1468817;40;20416;-84
2021/05/18 07:32:27;;;;;;;11.20;7.50;;;;;;;;;;1472255;40;20396;-84
2021/05/18 07:33:29;;;;;;;10.02;7.38;;;;;;;;;;1468594;40;21083;-84
2021/05/18 07:34:31;;;;;;;9.73;6.90;;;;;;;;;;1476884;40;20449;-83
2021/05/18 07:35:34;;;;;;;9.32;7.63;;;;;;;;;;1470710;40;20417;-87
2021/05/18 07:36:37;;;;;;;10.13;7.32;;;;;;;;;;1476895;40;20515;-84
2021/05/18 07:37:39;;;;;;;10.38;6.97;;;;;;;;;;1470517;40;20462;-84
2021/05/18 07:38:41;;;;;;;10.30;7.30;;;;;;;;;;1464845;40;20435;-84
2021/05/18 07:39:43;;;;;;;9.30;7.22;;;;;;;;;;1472591;40;20765;-84
2021/05/18 07:40:45;;;;;;;11.25;7.43;;;;;;;;;;1468380;40;20428;-84
2021/05/18 07:41:47;;;;;;;9.88;7.30;;;;;;;;;;1468243;40;20425;-83
2021/05/18 07:42:52;;;;;;;10.45;7.35;;;;;;;;;;1476394;40;20556;-84
2021/05/18 07:43:53;;;;;;;10.60;7.47;;;;;;;;;;1476787;40;20395;-84
2021/05/18 07:44:55;;;;;;;11.77;7.88;;;;;;;;;;1468773;40;20807;-84
2021/05/18 07:45:59;;;;;;;11.40;7.97;;;;;;;;;;1465838;40;20411;-84
2021/05/18 07:47:02;;;;;;;9.50;7.55;;;;;;;;;;1475325;40;20427;-85
2021/05/18 07:49:34;;;;;;;9.73;7.88;;;;;;;;;;1470713;40;20468;-86
2021/05/18 08:00:37;;;;;;;8.43;7.63;;;;;;;;;;1474776;40;20404;-84
2021/05/18 08:05:32;;;;;;;8.77;6.55;;;;;;;;;;1479041;40;20444;-86
2021/05/18 08:06:34;;;;;;;8.43;6.65;;;;;;;;;;1467381;40;21224;-83
2021/05/18 08:07:44;;;;;;;9.18;6.60;;;;;;;;;;1462019;40;20507;-83
2021/05/18 08:08:47;;;;;;;7.40;6.65;;;;;;;;;;1474723;40;20423;-84
2021/05/18 08:10:08;;;;;;;9.10;6.80;;;;;;;;;;1477459;40;20417;-82
2021/05/18 08:11:10;;;;;;;9.52;6.50;;;;;;;;;;1478184;40;20808;-82
2021/05/18 08:12:25;;;;;;;8.55;6.90;;;;;;;;;;1479309;40;20401;-83
2021/05/18 08:13:27;;;;;;;9.88;6.95;;;;;;;;;;1474917;40;20538;-82
2021/05/18 08:14:32;;;;;;;7.40;6.47;;;;;;;;;;1469837;40;20461;-82
2021/05/18 08:22:20;;;;;;;8.95;7.35;;;;;;;;;;1474919;40;20523;-83
2021/05/18 10:27:01;;;;;;;5.43;2.50;;;;;;;;;;1480974;40;20468;-84
2021/05/18 10:34:57;;;;;;;3.50;2.05;;;;;;;;;;1477944;40;21198;-83
2021/05/18 10:36:06;;;;;;;2.70;1.73;;;;;;;;;;1478842;40;20395;-82
2021/05/18 10:37:50;;;;;;;4.65;1.77;;;;;;;;;;1475073;40;20392;-83
2021/05/18 10:39:26;;;;;;;5.43;1.75;;;;;;;;;;1482083;40;20417;-83
2021/05/18 10:40:31;;;;;;;6.60;1.83;;;;;;;;;;1482047;40;20651;-83
2021/05/18 10:41:37;;;;;;;4.65;1.65;;;;;;;;;;1478766;40;20788;-82
2021/05/18 10:43:31;;;;;;;5.53;1.73;;;;;;;;;;1477874;40;20421;-83
2021/05/18 10:44:54;;;;;;;4.15;2.47;;;;;;;;;;1468622;40;20421;-83
2021/05/18 10:45:56;;;;;;;5.35;2.45;;;;;;;;;;1472890;40;20423;-83
2021/05/18 10:46:59;;;;;;;4.55;1.98;;;;;;;;;;1473286;40;20456;-81
2021/05/18 10:48:00;;;;;;;3.80;2.13;;;;;;;;;;1478071;40;20418;-82
2021/05/18 10:49:06;;;;;;;2.85;2.25;;;;;;;;;;1477454;40;20402;-81
2021/05/18 10:50:09;;;;;;;3.58;2.38;;;;;;;;;;1476732;40;20402;-81
2021/05/18 10:51:26;;;;;;;5.20;2.45;;;;;;;;;;1478871;40;20411;-81
2021/05/18 10:52:36;;;;;;;3.75;2.60;;;;;;;;;;1478016;40;20427;-81
2021/05/18 10:53:38;;;;;;;6.22;2.58;;;;;;;;;;1478113;40;20601;-81
2021/05/18 10:54:41;;;;;;;6.00;2.73;;;;;;;;;;1478363;40;20425;-82
2021/05/18 10:56:15;;;;;;;4.28;2.42;;;;;;;;;;1477998;40;20403;-81
2021/05/18 10:57:28;;;;;;;4.45;2.40;;;;;;;;;;1458940;40;20478;-82
2021/05/18 10:58:31;;;;;;;3.97;2.45;;;;;;;;;;1473583;40;20489;-82
2021/05/18 10:59:34;;;;;;;5.07;2.50;;;;;;;;;;1477395;40;20403;-80
2021/05/18 11:00:37;;;;;;;4.13;2.30;;;;;;;;;;1476117;40;21564;-79
2021/05/18 11:01:38;;;;;;;3.35;2.03;;;;;;;;;;1480422;40;20434;-82
2021/05/18 11:02:40;;;;;;;3.00;1.17;;;;;;;;;;1481382;40;20970;-79
2021/05/18 11:03:42;;;;;;;3.17;1.77;;;;;;;;;;1479992;40;20880;-81
2021/05/18 11:04:45;;;;;;;3.80;1.93;;;;;;;;;;1479096;40;20426;-83